Time;durP1;ratioP1;P1;durP2;ratioP2;P2;SDS_P1;SDS_P2;PMS_P1;PMS_P2;Temp;Humidity;BMP_temperature;BMP_pressure;BME280_temperature;BME280_humidity;BME280_pressure;Samples;Min_cycle;Max_cycle;Signal;HPM_P1;HPM_P2
2023/07/30 00:02:16;;;;;;;0.90;0.90;;;16.70;99.90;;;;;;4967276;28;20223;-80
2023/07/30 00:04:42;;;;;;;1.77;1.30;;;16.60;99.90;;;;;;4961260;28;20027;-82
2023/07/30 00:07:07;;;;;;;3.05;1.35;;;16.50;99.90;;;;;;4957853;28;20641;-79
2023/07/30 00:09:33;;;;;;;0.77;0.77;;;16.40;99.90;;;;;;4958132;28;20034;-81
2023/07/30 00:11:58;;;;;;;0.73;0.73;;;16.30;99.90;;;;;;4958496;28;20026;-78
2023/07/30 00:14:24;;;;;;;1.00;1.00;;;16.40;99.90;;;;;;4975061;28;20045;-81
2023/07/30 00:16:50;;;;;;;2.40;1.40;;;16.40;99.90;;;;;;4957574;28;20495;-81
2023/07/30 00:19:15;;;;;;;3.33;2.35;;;16.40;99.90;;;;;;4957373;28;20498;-78
2023/07/30 00:21:45;;;;;;;1.50;1.33;;;16.30;99.90;;;;;;4957620;28;20031;-81
2023/07/30 00:24:11;;;;;;;0.90;0.90;;;16.30;99.90;;;;;;4974788;28;20093;-80
2023/07/30 00:26:38;;;;;;;2.05;0.88;;;16.30;99.90;;;;;;4973755;28;20027;-80
2023/07/30 00:29:03;;;;;;;2.97;0.73;;;16.30;99.90;;;;;;4975031;28;20457;-80
2023/07/30 00:31:29;;;;;;;4.93;1.80;;;16.20;99.90;;;;;;4973999;28;20089;-81
2023/07/30 00:33:55;;;;;;;1.30;1.20;;;16.30;99.90;;;;;;4973719;28;20066;-78
2023/07/30 00:36:20;;;;;;;1.73;1.10;;;16.30;99.90;;;;;;4958619;28;20037;-81
2023/07/30 00:38:46;;;;;;;1.25;1.15;;;16.30;99.90;;;;;;4955668;28;20053;-78
2023/07/30 00:41:12;;;;;;;2.08;1.00;;;16.20;99.90;;;;;;4955369;28;20031;-79
2023/07/30 00:43:37;;;;;;;1.33;1.10;;;16.20;99.90;;;;;;4973388;28;20069;-82
2023/07/30 00:46:03;;;;;;;1.70;1.10;;;16.20;99.90;;;;;;4954737;28;20034;-82
2023/07/30 00:48:29;;;;;;;1.67;1.10;;;16.10;99.90;;;;;;4972262;28;20050;-79
2023/07/30 00:50:56;;;;;;;1.60;1.10;;;16.10;99.90;;;;;;4956954;28;20488;-80
2023/07/30 00:53:23;;;;;;;1.63;1.38;;;16.10;99.90;;;;;;4975143;28;20077;-79
2023/07/30 00:55:48;;;;;;;1.27;1.15;;;16.20;99.90;;;;;;4954225;28;20259;-79
2023/07/30 00:58:15;;;;;;;1.17;1.08;;;16.20;99.90;;;;;;4971987;28;20019;-79
2023/07/30 01:00:41;;;;;;;1.27;1.05;;;16.20;99.90;;;;;;4972731;28;20057;-79
2023/07/30 01:03:07;;;;;;;1.08;1.05;;;16.20;99.90;;;;;;4954607;28;20031;-78
2023/07/30 01:05:33;;;;;;;1.23;1.13;;;16.10;99.90;;;;;;4971848;28;20512;-79
2023/07/30 01:07:59;;;;;;;1.63;1.25;;;16.20;99.90;;;;;;4971880;28;20018;-78
2023/07/30 01:10:25;;;;;;;5.10;0.95;;;16.30;99.90;;;;;;4971896;28;20102;-78
2023/07/30 01:12:52;;;;;;;2.42;1.25;;;16.30;99.90;;;;;;4954621;28;20062;-79
2023/07/30 01:15:18;;;;;;;0.90;0.90;;;16.20;99.90;;;;;;4972062;28;20386;-79
2023/07/30 01:17:44;;;;;;;1.00;0.88;;;16.10;99.90;;;;;;4970211;28;20770;-81
2023/07/30 01:20:11;;;;;;;1.65;1.55;;;16.10;99.90;;;;;;4971006;28;20403;-80
2023/07/30 01:22:37;;;;;;;1.67;0.93;;;16.10;99.90;;;;;;4955781;28;20030;-79
2023/07/30 01:25:03;;;;;;;1.02;0.93;;;16.10;99.90;;;;;;4974290;28;20034;-78
2023/07/30 01:27:31;;;;;;;5.57;2.35;;;16.20;99.90;;;;;;4974379;28;20113;-78
2023/07/30 01:29:59;;;;;;;2.47;1.38;;;16.30;99.90;;;;;;4972447;28;20110;-80
2023/07/30 01:32:27;;;;;;;1.05;0.98;;;16.30;99.90;;;;;;4955249;28;20101;-79
2023/07/30 01:34:54;;;;;;;2.17;0.80;;;16.30;99.90;;;;;;4971552;28;20502;-79
2023/07/30 01:37:21;;;;;;;1.20;1.10;;;16.30;99.90;;;;;;4973340;28;20026;-79
2023/07/30 01:39:48;;;;;;;1.15;1.10;;;16.40;99.90;;;;;;4957712;28;20038;-79
2023/07/30 01:42:15;;;;;;;1.10;1.10;;;16.60;99.90;;;;;;4959018;28;20027;-79
2023/07/30 01:44:41;;;;;;;1.08;0.90;;;16.80;99.90;;;;;;4977238;28;20164;-79
2023/07/30 01:47:06;;;;;;;1.90;1.48;;;17.00;99.90;;;;;;4962841;28;20507;-81
2023/07/30 01:49:32;;;;;;;0.75;0.75;;;17.20;99.90;;;;;;4976774;28;20038;-78
2023/07/30 01:51:58;;;;;;;1.38;0.80;;;17.30;99.90;;;;;;4972045;28;20030;-79
2023/07/30 01:54:23;;;;;;;2.30;1.20;;;17.30;99.90;;;;;;4955451;28;20090;-79
2023/07/30 01:56:49;;;;;;;1.88;0.90;;;17.40;99.90;;;;;;4955991;28;20511;-79
2023/07/30 01:59:14;;;;;;;1.17;1.08;;;17.40;99.90;;;;;;4955615;28;20085;-79
2023/07/30 02:01:41;;;;;;;1.10;1.00;;;17.50;99.90;;;;;;4971708;28;20483;-79
2023/07/30 02:04:07;;;;;;;0.85;0.85;;;17.80;99.90;;;;;;4972822;28;20027;-78
2023/07/30 02:06:33;;;;;;;1.15;1.05;;;17.60;99.90;;;;;;4972253;28;20035;-79
2023/07/30 02:08:58;;;;;;;1.50;1.20;;;17.60;99.90;;;;;;4955642;28;20023;-79
2023/07/30 02:11:24;;;;;;;1.00;0.90;;;17.70;99.90;;;;;;4972455;28;20027;-80
2023/07/30 02:13:50;;;;;;;0.95;0.85;;;17.80;99.90;;;;;;4970888;28;20133;-79
2023/07/30 02:16:15;;;;;;;0.60;0.60;;;17.70;99.90;;;;;;4971841;28;20034;-79
2023/07/30 02:18:41;;;;;;;4.07;1.42;;;17.70;99.90;;;;;;4954275;28;20026;-80
2023/07/30 02:21:06;;;;;;;0.80;0.80;;;17.60;99.90;;;;;;4971609;28;20038;-79
2023/07/30 02:23:32;;;;;;;1.70;1.10;;;17.60;99.90;;;;;;4972102;28;20023;-79
2023/07/30 02:25:57;;;;;;;1.20;0.90;;;17.60;99.90;;;;;;4972109;28;20038;-80
2023/07/30 02:28:23;;;;;;;1.50;1.40;;;17.70;99.90;;;;;;4972537;28;20487;-80
2023/07/30 02:30:49;;;;;;;1.15;0.88;;;17.70;99.90;;;;;;4954308;28;20078;-79
2023/07/30 02:33:15;;;;;;;0.85;0.80;;;17.70;99.90;;;;;;4954100;28;20027;-79
2023/07/30 02:35:42;;;;;;;1.20;1.10;;;17.70;99.90;;;;;;4953601;28;20376;-79
2023/07/30 02:38:08;;;;;;;2.65;1.10;;;17.60;99.90;;;;;;4971275;28;20077;-78
2023/07/30 02:40:33;;;;;;;0.80;0.80;;;17.70;99.90;;;;;;4953163;28;20444;-79
2023/07/30 02:42:59;;;;;;;0.90;0.90;;;17.70;99.90;;;;;;4971070;28;20034;-79
2023/07/30 02:45:25;;;;;;;2.53;0.88;;;17.60;99.90;;;;;;4953009;28;20023;-79
2023/07/30 02:47:51;;;;;;;1.27;1.17;;;17.50;99.90;;;;;;4953457;28;20080;-79
2023/07/30 02:50:16;;;;;;;2.50;1.58;;;17.40;99.90;;;;;;4953139;28;20341;-79
2023/07/30 02:52:42;;;;;;;0.77;0.70;;;17.30;99.90;;;;;;4969121;28;20034;-78
2023/07/30 02:55:08;;;;;;;4.32;1.85;;;17.30;99.90;;;;;;4970363;28;20038;-78
2023/07/30 02:57:33;;;;;;;1.13;0.85;;;17.20;99.90;;;;;;4953325;28;20019;-79
2023/07/30 02:59:59;;;;;;;0.93;0.93;;;17.10;99.90;;;;;;4969333;28;20479;-79
2023/07/30 03:02:25;;;;;;;1.58;0.90;;;17.20;99.90;;;;;;4953563;28;20368;-79
2023/07/30 03:04:50;;;;;;;1.40;1.02;;;17.20;99.90;;;;;;4970807;28;20039;-78
2023/07/30 03:07:17;;;;;;;0.85;0.85;;;17.30;99.90;;;;;;4953250;28;20030;-79
2023/07/30 03:09:42;;;;;;;1.20;0.77;;;17.20;99.90;;;;;;4958757;28;20574;-79
2023/07/30 03:12:08;;;;;;;0.80;0.80;;;17.10;99.90;;;;;;4975810;28;20062;-79
2023/07/30 03:14:34;;;;;;;1.00;0.82;;;17.00;99.90;;;;;;4959879;28;20081;-79
2023/07/30 03:16:59;;;;;;;2.15;1.27;;;16.90;99.90;;;;;;4959507;28;20027;-78
2023/07/30 03:19:25;;;;;;;1.42;1.10;;;16.90;99.90;;;;;;4975679;28;20034;-79
2023/07/30 03:21:50;;;;;;;1.42;1.10;;;16.80;99.90;;;;;;4959539;28;20114;-79
2023/07/30 03:24:16;;;;;;;0.88;0.75;;;16.80;99.90;;;;;;4977683;28;20019;-79
2023/07/30 03:26:42;;;;;;;3.55;1.48;;;16.90;99.90;;;;;;4961333;28;20183;-79
2023/07/30 03:29:08;;;;;;;1.02;0.93;;;17.10;99.90;;;;;;4960846;28;20074;-78
2023/07/30 03:31:33;;;;;;;1.35;1.25;;;17.10;99.90;;;;;;4960019;28;20019;-79
2023/07/30 03:33:59;;;;;;;0.93;0.90;;;17.30;99.90;;;;;;4977462;28;20097;-78
2023/07/30 03:36:24;;;;;;;1.00;0.90;;;17.40;99.90;;;;;;4959831;28;20117;-79
2023/07/30 03:38:50;;;;;;;1.52;0.77;;;17.40;99.90;;;;;;4959396;28;20505;-79
2023/07/30 03:41:16;;;;;;;1.50;0.60;;;17.40;99.90;;;;;;4959430;28;20133;-79
2023/07/30 03:43:41;;;;;;;0.60;0.60;;;17.20;99.90;;;;;;4959511;28;20464;-78
2023/07/30 03:46:07;;;;;;;0.60;0.60;;;17.20;99.90;;;;;;4959409;28;20033;-79
2023/07/30 03:48:32;;;;;;;2.80;1.15;;;17.10;99.90;;;;;;4976714;28;20101;-79
2023/07/30 03:50:58;;;;;;;1.85;1.23;;;17.30;99.90;;;;;;4959416;28;20030;-78
2023/07/30 03:53:24;;;;;;;0.65;0.47;;;17.20;99.90;;;;;;4976901;28;20023;-78
2023/07/30 03:55:49;;;;;;;1.55;1.00;;;17.20;99.90;;;;;;4979489;28;20093;-78
2023/07/30 03:58:15;;;;;;;2.35;0.68;;;17.40;99.90;;;;;;4978652;28;20022;-78
2023/07/30 04:00:41;;;;;;;1.23;0.50;;;17.60;99.90;;;;;;4960926;28;20035;-79
2023/07/30 04:03:06;;;;;;;0.93;0.93;;;17.60;99.90;;;;;;4976221;28;20035;-80
2023/07/30 04:05:32;;;;;;;1.70;0.93;;;17.80;99.90;;;;;;4977760;28;20030;-79
2023/07/30 04:07:58;;;;;;;0.75;0.75;;;17.80;99.90;;;;;;4959028;28;20107;-79
2023/07/30 04:10:24;;;;;;;0.88;0.88;;;17.80;99.90;;;;;;4979420;28;20030;-79
2023/07/30 04:12:49;;;;;;;1.20;0.77;;;17.90;99.90;;;;;;4962349;28;20030;-79
2023/07/30 04:15:15;;;;;;;2.05;1.23;;;17.90;99.90;;;;;;4978385;28;20078;-78
2023/07/30 04:17:41;;;;;;;0.70;0.70;;;18.00;99.90;;;;;;4978123;28;20487;-78
2023/07/30 04:20:09;;;;;;;2.05;0.95;;;18.10;99.90;;;;;;4958649;28;20051;-79
2023/07/30 04:22:37;;;;;;;0.93;0.70;;;18.20;99.90;;;;;;4956171;28;20031;-79
2023/07/30 04:25:04;;;;;;;2.70;0.47;;;18.20;99.90;;;;;;4956164;28;20043;-79
2023/07/30 04:27:29;;;;;;;0.50;0.50;;;18.20;99.90;;;;;;4955618;28;20027;-79
2023/07/30 04:29:55;;;;;;;0.60;0.60;;;18.20;99.90;;;;;;4955661;28;20058;-78
2023/07/30 04:32:21;;;;;;;1.05;0.90;;;18.00;99.90;;;;;;4955703;28;20509;-78
2023/07/30 04:34:46;;;;;;;0.80;0.80;;;17.90;99.90;;;;;;4955496;28;20376;-79
2023/07/30 04:37:12;;;;;;;1.05;0.60;;;17.80;99.90;;;;;;4973148;28;20026;-79
2023/07/30 04:39:37;;;;;;;0.90;0.85;;;17.70;99.90;;;;;;4979814;28;20038;-79
2023/07/30 04:42:03;;;;;;;1.05;0.80;;;17.70;99.90;;;;;;4966482;28;20152;-80
2023/07/30 04:44:29;;;;;;;0.70;0.60;;;17.70;99.90;;;;;;4973625;28;20110;-80
2023/07/30 04:46:55;;;;;;;0.68;0.68;;;17.70;99.90;;;;;;4972463;28;20027;-79
2023/07/30 04:49:20;;;;;;;1.40;0.40;;;17.70;99.90;;;;;;4955257;28;20109;-79
2023/07/30 04:51:49;;;;;;;0.95;0.68;;;17.80;99.90;;;;;;4955496;28;20379;-79
2023/07/30 04:54:15;;;;;;;0.80;0.80;;;17.90;99.90;;;;;;4971262;28;20384;-79
2023/07/30 04:56:41;;;;;;;0.50;0.50;;;17.90;99.90;;;;;;4972912;28;20475;-79
2023/07/30 04:59:06;;;;;;;0.45;0.45;;;17.90;99.90;;;;;;4955160;28;20065;-79
2023/07/30 05:01:33;;;;;;;0.50;0.50;;;17.90;99.90;;;;;;4971510;28;20035;-79
2023/07/30 05:03:58;;;;;;;1.80;1.08;;;17.90;99.90;;;;;;4955423;28;20094;-79
2023/07/30 05:06:24;;;;;;;2.28;1.20;;;18.00;99.90;;;;;;4973283;28;20629;-79
2023/07/30 05:08:49;;;;;;;4.13;0.93;;;18.20;99.90;;;;;;4954772;28;20035;-79
2023/07/30 05:11:15;;;;;;;0.50;0.45;;;18.20;99.90;;;;;;4972454;28;20483;-79
2023/07/30 05:13:41;;;;;;;0.65;0.50;;;18.20;99.90;;;;;;4972759;28;20031;-80
2023/07/30 05:16:06;;;;;;;0.73;0.60;;;18.30;99.90;;;;;;4972742;28;20467;-73
2023/07/30 05:18:32;;;;;;;0.57;0.57;;;18.40;99.90;;;;;;4972881;28;20051;-78
2023/07/30 05:20:57;;;;;;;0.70;0.70;;;18.40;99.90;;;;;;4973831;28;20038;-78
2023/07/30 05:23:23;;;;;;;0.40;0.40;;;18.50;99.90;;;;;;4955972;28;20023;-77
2023/07/30 05:25:49;;;;;;;0.65;0.47;;;18.70;99.90;;;;;;4979214;28;20027;-78
2023/07/30 05:28:14;;;;;;;0.70;0.70;;;18.90;99.90;;;;;;4972502;28;20054;-77
2023/07/30 05:30:40;;;;;;;0.85;0.60;;;19.10;99.90;;;;;;4971198;28;20034;-77
2023/07/30 05:33:06;;;;;;;0.70;0.70;;;19.10;99.90;;;;;;4971847;28;20019;-77
2023/07/30 05:35:31;;;;;;;1.08;0.80;;;19.20;99.90;;;;;;4971019;28;20041;-78
2023/07/30 05:37:57;;;;;;;0.73;0.73;;;19.00;99.90;;;;;;4955680;28;20147;-77
2023/07/30 05:40:23;;;;;;;1.02;0.70;;;18.60;99.90;;;;;;4971383;28;20484;-77
2023/07/30 05:42:48;;;;;;;2.28;0.77;;;18.20;99.90;;;;;;4971623;28;20030;-76
2023/07/30 05:45:14;;;;;;;3.50;0.75;;;17.90;99.90;;;;;;4971424;28;20039;-77
2023/07/30 05:47:40;;;;;;;1.33;0.80;;;17.90;99.90;;;;;;4971442;28;20023;-77
2023/07/30 05:50:07;;;;;;;1.27;1.00;;;17.80;99.90;;;;;;4972956;28;20019;-77
2023/07/30 05:52:34;;;;;;;1.02;0.70;;;17.80;99.90;;;;;;4972284;28;20021;-77
2023/07/30 05:54:59;;;;;;;1.60;1.10;;;17.90;99.90;;;;;;4972586;28;20030;-77
2023/07/30 05:57:25;;;;;;;2.88;0.98;;;18.00;99.90;;;;;;4955229;28;20026;-77
2023/07/30 05:59:51;;;;;;;0.70;0.70;;;18.20;99.90;;;;;;4971716;28;20381;-78
2023/07/30 06:02:17;;;;;;;2.85;0.70;;;18.20;99.90;;;;;;4970368;28;20031;-78
2023/07/30 06:04:43;;;;;;;1.83;0.82;;;18.20;99.90;;;;;;4954036;28;20338;-78
2023/07/30 06:07:09;;;;;;;1.33;0.93;;;18.30;99.90;;;;;;4971507;28;20035;-77
2023/07/30 06:09:34;;;;;;;0.90;0.90;;;18.40;99.90;;;;;;4953765;28;20073;-78
2023/07/30 06:12:00;;;;;;;3.05;1.20;;;18.60;99.90;;;;;;4971018;28;20023;-79
2023/07/30 06:14:26;;;;;;;0.98;0.73;;;18.80;99.90;;;;;;4971530;28;20468;-77
2023/07/30 06:16:53;;;;;;;1.27;1.17;;;18.90;99.90;;;;;;4970967;28;20023;-78
2023/07/30 06:19:19;;;;;;;3.85;1.33;;;18.90;99.90;;;;;;4953570;28;20074;-78
2023/07/30 06:21:44;;;;;;;0.80;0.65;;;18.90;99.90;;;;;;4970440;28;20055;-78
2023/07/30 06:24:10;;;;;;;1.15;0.80;;;18.80;99.90;;;;;;4973902;28;20073;-78
2023/07/30 06:26:36;;;;;;;1.35;0.90;;;18.70;99.90;;;;;;4957234;28;20031;-78
2023/07/30 06:29:02;;;;;;;2.15;0.85;;;18.70;99.90;;;;;;4956059;28;20528;-77
2023/07/30 06:31:27;;;;;;;1.15;1.10;;;18.90;99.90;;;;;;4972541;28;20122;-78
2023/07/30 06:33:53;;;;;;;2.28;1.08;;;19.10;99.90;;;;;;4971543;28;20033;-77
2023/07/30 06:36:19;;;;;;;1.20;1.10;;;19.20;99.90;;;;;;4970323;28;20563;-78
2023/07/30 06:38:44;;;;;;;2.78;1.10;;;19.30;99.90;;;;;;4971288;28;20034;-78
2023/07/30 06:41:10;;;;;;;1.45;0.93;;;19.30;99.90;;;;;;4970806;28;20542;-78
2023/07/30 06:43:35;;;;;;;2.30;1.50;;;19.40;99.90;;;;;;4971978;28;20282;-77
2023/07/30 06:46:01;;;;;;;1.77;0.98;;;19.40;99.90;;;;;;4954758;28;20089;-77
2023/07/30 06:48:27;;;;;;;5.75;1.80;;;19.40;99.90;;;;;;4972267;28;20498;-77
2023/07/30 06:50:53;;;;;;;0.88;0.80;;;19.50;99.90;;;;;;4954605;28;20125;-78
2023/07/30 06:53:18;;;;;;;0.82;0.82;;;19.80;99.90;;;;;;4971778;28;20030;-77
2023/07/30 06:55:44;;;;;;;1.00;0.90;;;20.10;99.90;;;;;;4973299;28;20427;-77
2023/07/30 06:58:11;;;;;;;3.85;1.10;;;20.20;99.90;;;;;;4974198;28;20316;-77
2023/07/30 07:00:36;;;;;;;1.52;0.70;;;20.20;99.90;;;;;;4973416;28;20047;-77
2023/07/30 07:03:02;;;;;;;1.15;1.05;;;20.40;99.90;;;;;;4973148;28;20019;-77
2023/07/30 07:05:28;;;;;;;1.17;1.08;;;20.40;99.90;;;;;;4973894;28;20027;-77
2023/07/30 07:07:53;;;;;;;1.92;1.45;;;20.80;99.90;;;;;;4972234;28;20488;-77
2023/07/30 07:10:19;;;;;;;1.58;0.80;;;21.80;99.90;;;;;;4971650;28;20065;-78
2023/07/30 07:12:44;;;;;;;6.60;1.17;;;21.80;99.90;;;;;;4973956;28;20102;-77
2023/07/30 07:15:11;;;;;;;8.02;1.20;;;21.50;99.90;;;;;;4973200;28;20035;-77
2023/07/30 07:17:37;;;;;;;0.73;0.57;;;21.70;99.90;;;;;;4971159;28;20552;-77
2023/07/30 07:20:06;;;;;;;2.10;0.90;;;21.60;99.90;;;;;;4970849;28;20098;-77
2023/07/30 07:22:32;;;;;;;1.77;1.13;;;20.90;99.90;;;;;;4956693;28;20527;-77
2023/07/30 07:24:58;;;;;;;0.60;0.60;;;20.30;99.90;;;;;;4974917;28;20034;-78
2023/07/30 07:27:24;;;;;;;0.75;0.75;;;20.30;99.90;;;;;;4961000;28;20034;-78
2023/07/30 07:29:51;;;;;;;0.90;0.90;;;20.20;99.90;;;;;;4964912;28;20336;-78
2023/07/30 07:32:17;;;;;;;0.93;0.82;;;20.20;99.90;;;;;;4960739;28;20507;-77
2023/07/30 07:34:50;;;;;;;1.17;1.08;;;20.20;99.90;;;;;;4975038;28;20045;-77
2023/07/30 07:37:18;;;;;;;1.40;0.80;;;20.10;99.90;;;;;;4953609;28;20027;-74
2023/07/30 07:39:44;;;;;;;1.45;0.77;;;20.30;99.90;;;;;;4970674;28;20396;-73
2023/07/30 07:42:10;;;;;;;1.00;0.90;;;20.40;99.90;;;;;;4970546;28;20555;-72
2023/07/30 07:44:36;;;;;;;0.70;0.70;;;20.70;99.90;;;;;;4972211;28;20023;-79
2023/07/30 07:47:02;;;;;;;0.80;0.55;;;20.80;99.90;;;;;;4969713;28;20643;-78
2023/07/30 07:49:27;;;;;;;1.65;0.70;;;20.80;99.90;;;;;;4963858;28;20118;-78
2023/07/30 07:51:53;;;;;;;1.08;0.77;;;20.60;99.90;;;;;;4971064;28;20038;-77
2023/07/30 07:54:19;;;;;;;0.85;0.85;;;20.40;99.90;;;;;;4951778;28;20076;-80
2023/07/30 07:56:44;;;;;;;1.00;1.00;;;20.60;99.90;;;;;;4966633;28;20053;-81
2023/07/30 07:59:10;;;;;;;1.20;1.10;;;20.70;99.90;;;;;;4974200;28;20027;-82
2023/07/30 08:01:35;;;;;;;0.98;0.77;;;21.00;99.90;;;;;;4955002;29;20163;-77
2023/07/30 08:04:02;;;;;;;0.70;0.70;;;20.80;99.90;;;;;;4948393;29;20026;-77
2023/07/30 08:06:27;;;;;;;1.02;0.95;;;20.80;99.90;;;;;;4947659;29;20026;-77
2023/07/30 08:08:53;;;;;;;1.33;0.73;;;20.90;99.90;;;;;;4964292;29;20031;-77
2023/07/30 08:11:19;;;;;;;1.00;0.90;;;21.00;99.90;;;;;;4965044;29;20039;-73
2023/07/30 08:13:45;;;;;;;1.08;0.85;;;20.80;99.90;;;;;;4945417;29;20338;-77
2023/07/30 08:16:11;;;;;;;1.10;1.00;;;20.50;99.90;;;;;;4957540;29;20533;-86
2023/07/30 08:18:37;;;;;;;2.67;1.42;;;20.70;99.90;;;;;;4955190;29;20098;-76
2023/07/30 08:21:02;;;;;;;1.35;1.00;;;20.40;99.90;;;;;;4957017;29;20035;-76
2023/07/30 08:23:28;;;;;;;0.77;0.77;;;20.20;99.90;;;;;;4953937;29;20023;-77
2023/07/30 08:25:53;;;;;;;0.63;0.60;;;20.30;99.90;;;;;;4940548;29;20533;-75
2023/07/30 08:28:19;;;;;;;1.40;0.80;;;20.40;99.90;;;;;;4954787;29;20043;-77
2023/07/30 08:30:45;;;;;;;2.55;0.90;;;20.40;99.90;;;;;;4938467;29;20122;-77
2023/07/30 08:33:11;;;;;;;2.15;0.82;;;20.20;99.90;;;;;;4973152;28;20022;-76
2023/07/30 08:35:37;;;;;;;0.80;0.75;;;20.20;99.90;;;;;;4951898;29;20451;-78
2023/07/30 08:38:02;;;;;;;0.82;0.82;;;20.30;99.90;;;;;;4969836;28;20019;-78
2023/07/30 08:40:28;;;;;;;2.08;0.80;;;20.30;99.90;;;;;;4975300;28;20039;-78
2023/07/30 08:42:54;;;;;;;0.80;0.80;;;20.30;99.90;;;;;;4958833;28;20019;-76
2023/07/30 08:45:20;;;;;;;2.05;0.90;;;20.20;99.90;;;;;;4961275;28;20108;-78
2023/07/30 08:47:47;;;;;;;1.25;1.15;;;20.30;99.90;;;;;;4950975;28;20357;-77
2023/07/30 08:50:13;;;;;;;1.60;0.95;;;20.30;99.90;;;;;;4972710;28;20019;-77
2023/07/30 08:52:40;;;;;;;0.80;0.80;;;20.50;99.90;;;;;;4961530;28;20192;-77
2023/07/30 09:58:23;;;;;;;1.17;0.88;;;22.60;99.90;;;;;;4934927;28;20561;-77
2023/07/30 10:00:50;;;;;;;2.20;1.42;;;22.80;99.90;;;;;;4971612;28;20513;-77
2023/07/30 10:03:17;;;;;;;1.52;0.80;;;22.60;99.30;;;;;;4963839;28;20023;-80
2023/07/30 10:05:46;;;;;;;1.65;1.55;;;22.30;98.30;;;;;;4935877;29;20443;-74
2023/07/30 10:08:19;;;;;;;1.63;0.95;;;22.10;98.20;;;;;;4959211;28;20066;-77
2023/07/30 10:10:46;;;;;;;1.48;1.38;;;22.00;97.10;;;;;;4953772;28;20051;-77
2023/07/30 10:13:13;;;;;;;6.05;1.83;;;21.90;98.30;;;;;;4970759;28;20027;-76
2023/07/30 10:15:39;;;;;;;1.55;1.10;;;22.00;97.50;;;;;;4972383;28;20026;-77
2023/07/30 10:18:05;;;;;;;2.80;0.95;;;21.70;97.00;;;;;;4954031;28;20505;-78
2023/07/30 10:20:31;;;;;;;0.93;0.80;;;22.30;95.70;;;;;;4972448;28;20084;-77
2023/07/30 10:22:59;;;;;;;1.05;0.82;;;22.30;95.90;;;;;;4952086;28;20358;-80
2023/07/30 10:25:45;;;;;;;2.05;1.00;;;22.30;96.50;;;;;;4953919;28;20038;-78
2023/07/30 10:28:37;;;;;;;0.68;0.68;;;22.50;95.90;;;;;;4969304;28;20506;-78
2023/07/30 10:31:13;;;;;;;1.27;1.00;;;23.00;96.30;;;;;;4957814;28;20074;-78
2023/07/30 10:33:55;;;;;;;2.33;1.30;;;23.80;95.10;;;;;;4952972;28;20027;-81
2023/07/30 10:36:32;;;;;;;2.50;1.00;;;24.10;92.10;;;;;;4953373;28;20098;-79
2023/07/30 10:39:20;;;;;;;0.80;0.80;;;23.90;87.50;;;;;;4953743;28;20081;-79
2023/07/30 10:41:51;;;;;;;1.92;1.02;;;23.60;84.30;;;;;;4970696;28;20089;-78
2023/07/30 10:44:26;;;;;;;0.60;0.60;;;23.50;82.40;;;;;;4971018;28;20025;-78
2023/07/30 10:46:57;;;;;;;2.35;1.15;;;23.30;79.50;;;;;;4972435;28;20479;-80
2023/07/30 10:49:25;;;;;;;0.80;0.70;;;23.00;76.60;;;;;;4954459;29;20075;-81
2023/07/30 10:51:55;;;;;;;0.80;0.80;;;22.90;77.80;;;;;;4943746;29;20543;-83
2023/07/30 10:54:22;;;;;;;2.58;1.80;;;23.00;77.80;;;;;;4951897;28;20070;-78
2023/07/30 10:56:47;;;;;;;178.25;129.10;;;23.30;80.10;;;;;;4921866;23;20056;-79
2023/07/30 10:59:14;;;;;;;24.52;18.08;;;23.70;78.90;;;;;;4904729;29;20232;-76
2023/07/30 11:01:44;;;;;;;3.97;1.27;;;23.60;76.90;;;;;;4918717;29;20315;-76
2023/07/30 11:04:10;;;;;;;2.15;1.00;;;23.70;77.70;;;;;;4921049;29;20176;-78
2023/07/30 11:06:36;;;;;;;4.40;2.28;;;23.70;77.60;;;;;;4923131;29;20117;-76
2023/07/30 11:09:02;;;;;;;0.80;0.80;;;23.70;75.80;;;;;;4914675;23;20176;-78
2023/07/30 11:11:28;;;;;;;5.80;3.20;;;23.90;72.50;;;;;;4934083;29;20023;-79
2023/07/30 11:13:54;;;;;;;1.08;0.65;;;23.80;71.30;;;;;;4924202;29;20012;-77
2023/07/30 11:16:20;;;;;;;1.60;0.70;;;23.90;70.60;;;;;;4941758;29;20012;-77
2023/07/30 11:18:47;;;;;;;2.10;0.85;;;24.10;72.10;;;;;;4922751;29;20257;-77
2023/07/30 11:21:17;;;;;;;3.35;0.98;;;24.20;70.80;;;;;;4924203;29;20055;-76
2023/07/30 11:23:45;;;;;;;1.35;0.70;;;24.30;71.50;;;;;;4937569;29;20035;-76
2023/07/30 11:26:18;;;;;;;1.20;0.85;;;24.30;70.10;;;;;;4923325;29;20032;-77
2023/07/30 11:28:44;;;;;;;0.98;0.88;;;24.30;69.30;;;;;;4902256;29;20051;-75
2023/07/30 11:31:21;;;;;;;0.82;0.82;;;24.50;68.20;;;;;;4911414;29;20023;-77
2023/07/30 11:33:48;;;;;;;0.82;0.73;;;24.70;67.80;;;;;;4945350;29;20187;-76
2023/07/30 11:36:22;;;;;;;1.00;0.90;;;24.60;69.60;;;;;;4945427;29;20038;-78
2023/07/30 11:38:48;;;;;;;0.90;0.90;;;24.50;71.80;;;;;;4935263;29;20024;-77
2023/07/30 11:41:14;;;;;;;0.80;0.80;;;25.10;71.20;;;;;;4917423;29;20083;-77
2023/07/30 11:43:42;;;;;;;5.40;1.08;;;24.90;66.80;;;;;;4924979;23;20094;-77
2023/07/30 11:46:15;;;;;;;1.52;1.15;;;24.80;69.00;;;;;;4930383;29;20504;-77
2023/07/30 11:48:43;;;;;;;3.33;1.25;;;25.50;68.60;;;;;;4943098;23;20142;-77
2023/07/30 11:51:27;;;;;;;0.60;0.60;;;25.20;69.50;;;;;;4933452;29;20644;-79
2023/07/30 11:56:25;;;;;;;2.30;0.75;;;24.70;68.60;;;;;;4969180;23;20047;-77
2023/07/30 11:58:57;;;;;;;1.00;0.77;;;24.50;67.60;;;;;;4951812;29;20027;-78
2023/07/30 12:01:28;;;;;;;1.92;0.80;;;24.50;67.50;;;;;;4952468;23;20056;-78
2023/07/30 12:03:58;;;;;;;2.38;0.60;;;24.50;67.70;;;;;;4933354;23;20063;-78
2023/07/30 12:06:24;;;;;;;0.73;0.70;;;24.70;68.50;;;;;;4947896;28;20058;-77
2023/07/30 12:08:50;;;;;;;1.33;0.50;;;24.80;67.00;;;;;;4922193;23;20058;-76
2023/07/30 12:11:21;;;;;;;1.10;0.80;;;24.90;65.80;;;;;;4891861;29;20215;-75
2023/07/30 12:13:50;;;;;;;0.70;0.70;;;25.40;67.70;;;;;;4900447;29;20342;-74
2023/07/30 12:16:15;;;;;;;0.93;0.85;;;25.80;65.10;;;;;;4893636;29;20082;-76
2023/07/30 12:18:41;;;;;;;0.77;0.75;;;26.10;64.40;;;;;;4894383;29;20033;-75
2023/07/30 12:21:07;;;;;;;1.20;0.68;;;26.40;64.20;;;;;;4892560;29;20273;-75
2023/07/30 12:23:34;;;;;;;0.60;0.60;;;26.70;64.00;;;;;;4932617;23;20143;-77
2023/07/30 12:26:00;;;;;;;0.65;0.60;;;26.20;60.80;;;;;;4930030;23;20058;-76
2023/07/30 12:28:25;;;;;;;1.95;0.28;;;26.30;61.20;;;;;;4910464;29;20451;-77
2023/07/30 12:30:51;;;;;;;0.68;0.65;;;26.50;61.20;;;;;;4910653;29;20032;-77
2023/07/30 12:33:16;;;;;;;0.95;0.57;;;27.00;59.70;;;;;;4935362;23;20056;-76
2023/07/30 12:35:42;;;;;;;1.25;0.77;;;26.70;57.30;;;;;;4956418;23;20114;-77
2023/07/30 12:38:08;;;;;;;0.70;0.47;;;27.00;57.10;;;;;;4925763;29;20024;-77
2023/07/30 12:40:34;;;;;;;2.38;0.90;;;27.70;58.40;;;;;;4932957;29;20094;-76
2023/07/30 12:43:03;;;;;;;1.25;0.68;;;27.70;58.50;;;;;;4943438;29;20028;-76
2023/07/30 12:47:57;;;;;;;1.60;0.52;;;27.60;58.20;;;;;;4950234;28;19926;-77
2023/07/30 12:50:23;;;;;;;2.38;0.60;;;27.90;59.80;;;;;;4939807;29;20027;-75
2023/07/30 12:52:48;;;;;;;1.05;0.82;;;27.50;59.00;;;;;;4932264;29;20034;-76
2023/07/30 12:55:14;;;;;;;1.13;0.65;;;27.00;60.50;;;;;;4950294;29;20074;-77
2023/07/30 12:57:40;;;;;;;1.65;1.10;;;27.50;61.40;;;;;;4949140;29;20024;-76
2023/07/30 13:00:06;;;;;;;0.77;0.68;;;27.80;60.50;;;;;;4949851;29;20349;-76
2023/07/30 13:02:35;;;;;;;0.77;0.63;;;28.30;59.70;;;;;;4949910;29;20046;-75
2023/07/30 13:05:01;;;;;;;1.63;0.70;;;28.70;58.10;;;;;;4950667;29;20026;-75
2023/07/30 13:07:27;;;;;;;0.60;0.50;;;28.70;58.00;;;;;;4949888;29;20122;-77
2023/07/30 13:10:07;;;;;;;2.60;0.98;;;29.00;61.20;;;;;;4933816;29;20023;-77
2023/07/30 13:12:33;;;;;;;2.38;0.88;;;29.00;61.50;;;;;;4932140;29;20035;-77
2023/07/30 13:14:59;;;;;;;0.73;0.70;;;28.40;64.20;;;;;;4935871;29;20034;-78
2023/07/30 13:17:25;;;;;;;0.60;0.60;;;28.10;61.40;;;;;;4932073;29;20478;-78
2023/07/30 13:19:50;;;;;;;3.78;1.00;;;28.80;60.90;;;;;;4950540;29;20106;-77
2023/07/30 13:22:16;;;;;;;0.60;0.60;;;29.00;61.70;;;;;;4925154;29;20038;-79
2023/07/30 13:24:42;;;;;;;3.95;1.17;;;28.70;58.60;;;;;;4932317;29;20317;-77
2023/07/30 13:27:07;;;;;;;0.70;0.70;;;27.50;60.10;;;;;;4949774;29;20058;-76
2023/07/30 13:29:33;;;;;;;1.10;0.93;;;26.30;65.00;;;;;;4934203;29;20023;-76
2023/07/30 13:31:59;;;;;;;3.65;0.70;;;27.20;61.50;;;;;;4950231;29;20111;-73
2023/07/30 13:34:24;;;;;;;0.98;0.65;;;27.80;61.90;;;;;;4934158;29;20038;-74
2023/07/30 13:36:50;;;;;;;1.55;0.50;;;28.80;58.80;;;;;;4934327;29;20058;-74
2023/07/30 13:39:16;;;;;;;1.40;0.77;;;29.60;59.70;;;;;;4951401;29;20027;-74
2023/07/30 13:41:42;;;;;;;1.33;0.98;;;29.30;56.00;;;;;;4951586;29;20514;-74
2023/07/30 13:44:07;;;;;;;4.47;0.77;;;28.20;60.10;;;;;;4933819;29;20114;-75
2023/07/30 13:46:33;;;;;;;0.95;0.88;;;28.10;61.90;;;;;;4950637;29;20075;-76
2023/07/30 13:48:58;;;;;;;0.80;0.60;;;27.10;61.10;;;;;;4950438;29;20051;-73
2023/07/30 13:51:24;;;;;;;0.70;0.70;;;27.10;61.60;;;;;;4934141;29;20114;-75